Honaunau, HI

5:43 AM HST on September 22, 2014 (GMT -1000)
Bradshaw Army Air Field | Change Station
CLOSE
Current Station
Airport
Location: Bradshaw AFB,
Elevation: 6191 ft
Nearby Weather Stations

Elev 6191 ft 19.76 °N, 155.55 °W | Updated 47 minutes ago

Clear
Clear
51 °F
Feels Like 51 °F
N
7
Wind Variable Wind from ESE

Today
High -- | Low -- °F
--% Chance of Precip.
Yesterday
High -- | Low -- °F
Precip. -- in
6:12 AM 6:19 PM
Waning Crescent, 2% visible
Pressure 30.03 in
Visibility 11.0 miles
Clouds Clear
Dew Point 47 °F
Humidity 85%
Rainfall 0.00 in
Snow Depth Not available.
UV 0 out of 12
Pollen Not available.
Air Quality Not available.
Flu Activity Not available.
METAR PHSF 221456Z AUTO 12006KT 11SM CLR 11/08 A3036 RMK AO2 SLP168 T01060081 56007

More Conditions Fewer Conditions

Pressure 30.03 in
Visibility 11.0 miles
Clouds Clear
Dew Point 47 °F
Humidity 85%
Rainfall 0.00 in
Snow Depth Not available.
UV 0 out of 12
Pollen Not available.
Air Quality Not available.
Flu Activity Not available.
METAR PHSF 221456Z AUTO 12006KT 11SM CLR 11/08 A3036 RMK AO2 SLP168 T01060081 56007

More Conditions Fewer Conditions

10-Day Weather Forecast

Almanac

Astronomy

Sep. 22, 2014 Rise Set
Actual Time 6:12 AM HST 6:19 PM HST
Civil Twilight 5:50 AM HST 6:41 PM HST
Nautical Twilight 5:25 AM HST 7:06 PM HST
Astronomical Twilight 4:59 AM HST 7:32 PM HST
Moon 4:58 AM HST 5:29 PM HST
Length of Visible Light 12h 50m
Length of Day
12h 07m
Tomorrow will be 1m 6s shorter.
Waning Crescent, 2% of the Moon is Illuminated
Today
Waning Crescent
Sep 24
New
Oct 1
First Quarter
Oct 8
Full
Oct 15
Last Quarter

Today's Extremes

State Highs State Lows

Community

WunderPhotos

Upload Photos

1,755,467 photos uploaded!

Nearby

Snow Depth

Station Depth Elevation
No new snow has been reported.

Earthquake Activity

City Distance Mag. Time & Date
No recent earthquake activity has been reported nearby.
Minimum magnitude displayed is 2.5.

Coastal Water Temperatures

Place Temperature
No Stations Reporting

Nearby Weather Stations